sensor_id;sensor_type;location;lat;lon;timestamp;P1;durP1;ratioP1;P2;durP2;ratioP2
64395;SDS011;50717;53.360;6.290;2022-12-05T00:00:58;31.85;;;17.50;;
64395;SDS011;50717;53.360;6.290;2022-12-05T00:03:35;35.53;;;19.50;;
64395;SDS011;50717;53.360;6.290;2022-12-05T00:06:02;37.95;;;18.95;;
64395;SDS011;50717;53.360;6.290;2022-12-05T00:08:28;40.65;;;21.35;;
64395;SDS011;50717;53.360;6.290;2022-12-05T00:10:53;37.58;;;19.15;;
64395;SDS011;50717;53.360;6.290;2022-12-05T00:13:19;43.03;;;20.73;;
64395;SDS011;50717;53.360;6.290;2022-12-05T00:15:45;40.70;;;20.73;;
64395;SDS011;50717;53.360;6.290;2022-12-05T00:18:10;40.55;;;20.20;;
64395;SDS011;50717;53.360;6.290;2022-12-05T00:20:36;41.45;;;19.75;;
64395;SDS011;50717;53.360;6.290;2022-12-05T00:23:02;44.28;;;21.63;;
64395;SDS011;50717;53.360;6.290;2022-12-05T00:25:27;39.78;;;20.73;;
64395;SDS011;50717;53.360;6.290;2022-12-05T00:27:53;36.55;;;20.90;;
64395;SDS011;50717;53.360;6.290;2022-12-05T00:30:19;40.97;;;21.70;;
64395;SDS011;50717;53.360;6.290;2022-12-05T00:32:45;44.42;;;21.55;;
64395;SDS011;50717;53.360;6.290;2022-12-05T00:35:10;45.00;;;22.52;;
64395;SDS011;50717;53.360;6.290;2022-12-05T00:37:36;44.15;;;22.52;;
64395;SDS011;50717;53.360;6.290;2022-12-05T00:40:02;44.97;;;21.35;;
64395;SDS011;50717;53.360;6.290;2022-12-05T00:42:28;40.28;;;21.00;;
64395;SDS011;50717;53.360;6.290;2022-12-05T00:44:56;49.47;;;22.42;;
64395;SDS011;50717;53.360;6.290;2022-12-05T00:47:22;41.95;;;21.77;;
64395;SDS011;50717;53.360;6.290;2022-12-05T00:49:47;47.20;;;22.33;;
64395;SDS011;50717;53.360;6.290;2022-12-05T00:52:13;45.00;;;23.77;;
64395;SDS011;50717;53.360;6.290;2022-12-05T00:54:39;46.60;;;21.75;;
64395;SDS011;50717;53.360;6.290;2022-12-05T00:57:04;45.80;;;22.08;;
64395;SDS011;50717;53.360;6.290;2022-12-05T00:59:30;41.63;;;20.05;;
64395;SDS011;50717;53.360;6.290;2022-12-05T01:01:56;43.95;;;20.45;;
64395;SDS011;50717;53.360;6.290;2022-12-05T01:04:22;44.97;;;21.63;;
64395;SDS011;50717;53.360;6.290;2022-12-05T01:06:49;43.75;;;20.85;;
64395;SDS011;50717;53.360;6.290;2022-12-05T01:09:18;40.17;;;20.10;;
64395;SDS011;50717;53.360;6.290;2022-12-05T01:11:44;40.08;;;18.98;;
64395;SDS011;50717;53.360;6.290;2022-12-05T01:14:11;38.58;;;19.15;;
64395;SDS011;50717;53.360;6.290;2022-12-05T01:16:38;40.03;;;18.20;;
64395;SDS011;50717;53.360;6.290;2022-12-05T01:19:06;31.80;;;16.73;;
64395;SDS011;50717;53.360;6.290;2022-12-05T01:21:36;35.58;;;15.82;;
64395;SDS011;50717;53.360;6.290;2022-12-05T01:24:02;34.95;;;16.20;;
64395;SDS011;50717;53.360;6.290;2022-12-05T01:26:27;30.25;;;15.23;;
64395;SDS011;50717;53.360;6.290;2022-12-05T01:28:54;31.50;;;14.15;;
64395;SDS011;50717;53.360;6.290;2022-12-05T01:31:27;29.80;;;14.57;;
64395;SDS011;50717;53.360;6.290;2022-12-05T01:33:54;27.83;;;14.13;;
64395;SDS011;50717;53.360;6.290;2022-12-05T01:36:21;30.73;;;13.55;;
64395;SDS011;50717;53.360;6.290;2022-12-05T01:38:48;26.98;;;14.32;;
64395;SDS011;50717;53.360;6.290;2022-12-05T01:41:15;30.67;;;14.23;;
64395;SDS011;50717;53.360;6.290;2022-12-05T01:46:36;24.60;;;12.85;;
64395;SDS011;50717;53.360;6.290;2022-12-05T01:49:06;24.92;;;12.38;;
64395;SDS011;50717;53.360;6.290;2022-12-05T01:51:45;20.88;;;11.80;;
64395;SDS011;50717;53.360;6.290;2022-12-05T01:54:14;21.05;;;10.85;;
64395;SDS011;50717;53.360;6.290;2022-12-05T01:56:43;26.63;;;12.73;;
64395;SDS011;50717;53.360;6.290;2022-12-05T01:59:13;22.98;;;11.70;;
64395;SDS011;50717;53.360;6.290;2022-12-05T02:01:40;23.50;;;10.82;;
64395;SDS011;50717;53.360;6.290;2022-12-05T02:04:05;22.45;;;11.48;;
64395;SDS011;50717;53.360;6.290;2022-12-05T02:06:32;17.33;;;9.88;;
64395;SDS011;50717;53.360;6.290;2022-12-05T02:08:58;21.88;;;10.88;;
64395;SDS011;50717;53.360;6.290;2022-12-05T02:11:24;19.27;;;10.07;;
64395;SDS011;50717;53.360;6.290;2022-12-05T02:14:09;18.92;;;9.73;;
64395;SDS011;50717;53.360;6.290;2022-12-05T02:22:44;24.17;;;9.90;;
64395;SDS011;50717;53.360;6.290;2022-12-05T02:28:54;20.35;;;10.02;;
64395;SDS011;50717;53.360;6.290;2022-12-05T02:31:34;18.35;;;10.55;;
64395;SDS011;50717;53.360;6.290;2022-12-05T02:37:12;23.92;;;9.13;;
64395;SDS011;50717;53.360;6.290;2022-12-05T02:40:13;25.15;;;9.35;;
64395;SDS011;50717;53.360;6.290;2022-12-05T02:45:25;19.75;;;9.18;;
64395;SDS011;50717;53.360;6.290;2022-12-05T02:47:54;20.33;;;8.90;;
64395;SDS011;50717;53.360;6.290;2022-12-05T02:50:24;17.00;;;7.85;;
64395;SDS011;50717;53.360;6.290;2022-12-05T02:52:59;21.95;;;9.57;;
64395;SDS011;50717;53.360;6.290;2022-12-05T02:55:29;20.50;;;8.85;;
64395;SDS011;50717;53.360;6.290;2022-12-05T02:57:57;22.52;;;8.75;;
64395;SDS011;50717;53.360;6.290;2022-12-05T03:00:25;20.38;;;8.98;;
64395;SDS011;50717;53.360;6.290;2022-12-05T03:02:52;19.20;;;9.05;;
64395;SDS011;50717;53.360;6.290;2022-12-05T03:05:22;20.35;;;8.10;;
64395;SDS011;50717;53.360;6.290;2022-12-05T03:07:57;18.02;;;7.88;;
64395;SDS011;50717;53.360;6.290;2022-12-05T03:10:26;20.08;;;8.73;;
64395;SDS011;50717;53.360;6.290;2022-12-05T03:12:59;22.17;;;8.07;;
64395;SDS011;50717;53.360;6.290;2022-12-05T03:15:40;23.17;;;8.95;;
64395;SDS011;50717;53.360;6.290;2022-12-05T03:18:46;19.00;;;8.05;;
64395;SDS011;50717;53.360;6.290;2022-12-05T03:23:38;25.27;;;8.77;;
64395;SDS011;50717;53.360;6.290;2022-12-05T03:28:53;22.65;;;9.13;;
64395;SDS011;50717;53.360;6.290;2022-12-05T03:31:33;16.90;;;8.43;;
64395;SDS011;50717;53.360;6.290;2022-12-05T03:34:13;22.40;;;9.45;;
64395;SDS011;50717;53.360;6.290;2022-12-05T03:36:45;21.00;;;8.80;;
64395;SDS011;50717;53.360;6.290;2022-12-05T03:39:21;21.50;;;9.43;;
64395;SDS011;50717;53.360;6.290;2022-12-05T03:44:49;25.73;;;10.07;;
64395;SDS011;50717;53.360;6.290;2022-12-05T03:47:39;32.95;;;10.50;;
64395;SDS011;50717;53.360;6.290;2022-12-05T03:50:15;25.98;;;10.82;;
64395;SDS011;50717;53.360;6.290;2022-12-05T03:52:48;26.65;;;10.35;;
64395;SDS011;50717;53.360;6.290;2022-12-05T03:55:19;23.70;;;10.93;;
64395;SDS011;50717;53.360;6.290;2022-12-05T03:57:56;25.67;;;10.43;;
64395;SDS011;50717;53.360;6.290;2022-12-05T04:00:26;21.95;;;10.93;;
64395;SDS011;50717;53.360;6.290;2022-12-05T04:03:01;27.05;;;10.20;;
64395;SDS011;50717;53.360;6.290;2022-12-05T04:08:15;22.88;;;10.88;;
64395;SDS011;50717;53.360;6.290;2022-12-05T04:10:47;28.60;;;11.18;;
64395;SDS011;50717;53.360;6.290;2022-12-05T04:13:17;24.58;;;10.70;;
64395;SDS011;50717;53.360;6.290;2022-12-05T04:16:19;27.60;;;11.07;;
64395;SDS011;50717;53.360;6.290;2022-12-05T04:19:23;24.13;;;10.88;;
64395;SDS011;50717;53.360;6.290;2022-12-05T04:22:14;26.60;;;11.68;;
64395;SDS011;50717;53.360;6.290;2022-12-05T04:24:40;29.13;;;11.88;;
64395;SDS011;50717;53.360;6.290;2022-12-05T04:27:29;23.35;;;10.68;;
64395;SDS011;50717;53.360;6.290;2022-12-05T04:30:20;23.58;;;10.07;;
64395;SDS011;50717;53.360;6.290;2022-12-05T04:35:49;27.60;;;10.77;;
64395;SDS011;50717;53.360;6.290;2022-12-05T04:38:23;22.98;;;10.38;;
64395;SDS011;50717;53.360;6.290;2022-12-05T04:41:06;30.98;;;12.65;;
64395;SDS011;50717;53.360;6.290;2022-12-05T04:43:40;20.58;;;10.55;;
64395;SDS011;50717;53.360;6.290;2022-12-05T04:46:09;25.98;;;11.18;;
64395;SDS011;50717;53.360;6.290;2022-12-05T04:48:37;23.38;;;10.48;;
64395;SDS011;50717;53.360;6.290;2022-12-05T04:51:06;24.05;;;10.82;;
64395;SDS011;50717;53.360;6.290;2022-12-05T04:53:37;25.42;;;10.27;;
64395;SDS011;50717;53.360;6.290;2022-12-05T04:56:05;24.15;;;10.75;;
64395;SDS011;50717;53.360;6.290;2022-12-05T04:58:32;27.33;;;10.88;;
64395;SDS011;50717;53.360;6.290;2022-12-05T05:03:51;24.70;;;10.75;;
64395;SDS011;50717;53.360;6.290;2022-12-05T05:06:22;27.92;;;12.15;;
64395;SDS011;50717;53.360;6.290;2022-12-05T05:08:54;26.58;;;12.23;;
64395;SDS011;50717;53.360;6.290;2022-12-05T05:11:25;28.08;;;10.75;;
64395;SDS011;50717;53.360;6.290;2022-12-05T05:13:53;30.15;;;11.95;;
64395;SDS011;50717;53.360;6.290;2022-12-05T05:16:20;22.73;;;10.48;;
64395;SDS011;50717;53.360;6.290;2022-12-05T05:18:47;27.35;;;11.60;;
64395;SDS011;50717;53.360;6.290;2022-12-05T05:21:35;25.52;;;10.57;;
64395;SDS011;50717;53.360;6.290;2022-12-05T05:24:02;25.48;;;10.15;;
64395;SDS011;50717;53.360;6.290;2022-12-05T05:26:28;26.13;;;10.52;;
64395;SDS011;50717;53.360;6.290;2022-12-05T05:28:55;29.00;;;10.40;;
64395;SDS011;50717;53.360;6.290;2022-12-05T05:31:22;32.67;;;10.18;;
64395;SDS011;50717;53.360;6.290;2022-12-05T05:33:48;30.80;;;10.50;;
64395;SDS011;50717;53.360;6.290;2022-12-05T05:36:15;28.00;;;11.10;;
64395;SDS011;50717;53.360;6.290;2022-12-05T05:38:42;26.38;;;9.32;;
64395;SDS011;50717;53.360;6.290;2022-12-05T05:41:13;23.30;;;9.80;;
64395;SDS011;50717;53.360;6.290;2022-12-05T05:43:40;23.27;;;10.55;;
64395;SDS011;50717;53.360;6.290;2022-12-05T05:46:06;22.92;;;9.55;;
64395;SDS011;50717;53.360;6.290;2022-12-05T05:50:59;21.50;;;9.77;;
64395;SDS011;50717;53.360;6.290;2022-12-05T05:53:25;21.88;;;9.35;;
64395;SDS011;50717;53.360;6.290;2022-12-05T05:55:51;22.92;;;10.07;;
64395;SDS011;50717;53.360;6.290;2022-12-05T05:58:17;29.73;;;9.60;;
64395;SDS011;50717;53.360;6.290;2022-12-05T06:00:42;20.80;;;9.35;;
64395;SDS011;50717;53.360;6.290;2022-12-05T06:03:08;23.60;;;9.68;;
64395;SDS011;50717;53.360;6.290;2022-12-05T06:05:34;22.70;;;9.80;;
64395;SDS011;50717;53.360;6.290;2022-12-05T06:07:59;21.92;;;9.27;;
64395;SDS011;50717;53.360;6.290;2022-12-05T06:10:25;25.42;;;9.00;;
64395;SDS011;50717;53.360;6.290;2022-12-05T06:12:51;24.70;;;8.82;;
64395;SDS011;50717;53.360;6.290;2022-12-05T06:15:16;22.95;;;9.15;;
64395;SDS011;50717;53.360;6.290;2022-12-05T06:17:42;21.10;;;8.18;;
64395;SDS011;50717;53.360;6.290;2022-12-05T06:20:08;23.13;;;8.93;;
64395;SDS011;50717;53.360;6.290;2022-12-05T06:22:34;26.92;;;8.30;;
64395;SDS011;50717;53.360;6.290;2022-12-05T06:24:59;26.50;;;8.27;;
64395;SDS011;50717;53.360;6.290;2022-12-05T06:27:27;26.97;;;8.07;;
64395;SDS011;50717;53.360;6.290;2022-12-05T06:29:54;16.40;;;7.65;;
64395;SDS011;50717;53.360;6.290;2022-12-05T06:32:20;22.50;;;7.90;;
64395;SDS011;50717;53.360;6.290;2022-12-05T06:34:45;22.42;;;7.45;;
64395;SDS011;50717;53.360;6.290;2022-12-05T06:37:11;24.17;;;7.93;;
64395;SDS011;50717;53.360;6.290;2022-12-05T06:39:36;31.10;;;7.97;;
64395;SDS011;50717;53.360;6.290;2022-12-05T06:42:02;22.65;;;7.35;;
64395;SDS011;50717;53.360;6.290;2022-12-05T06:44:28;24.58;;;7.78;;
64395;SDS011;50717;53.360;6.290;2022-12-05T06:46:56;19.00;;;7.25;;
64395;SDS011;50717;53.360;6.290;2022-12-05T06:49:22;20.55;;;7.30;;
64395;SDS011;50717;53.360;6.290;2022-12-05T06:51:51;17.85;;;7.40;;
64395;SDS011;50717;53.360;6.290;2022-12-05T06:54:17;23.92;;;7.43;;
64395;SDS011;50717;53.360;6.290;2022-12-05T07:06:33;19.10;;;7.32;;
64395;SDS011;50717;53.360;6.290;2022-12-05T07:08:59;23.85;;;6.72;;
64395;SDS011;50717;53.360;6.290;2022-12-05T07:11:25;21.15;;;7.10;;
64395;SDS011;50717;53.360;6.290;2022-12-05T07:13:51;19.70;;;6.60;;
64395;SDS011;50717;53.360;6.290;2022-12-05T07:16:16;22.13;;;7.45;;
64395;SDS011;50717;53.360;6.290;2022-12-05T07:18:42;21.98;;;7.43;;
64395;SDS011;50717;53.360;6.290;2022-12-05T07:21:10;24.63;;;8.07;;
64395;SDS011;50717;53.360;6.290;2022-12-05T07:23:38;23.23;;;8.07;;
64395;SDS011;50717;53.360;6.290;2022-12-05T07:26:05;20.98;;;7.38;;
64395;SDS011;50717;53.360;6.290;2022-12-05T07:28:32;19.75;;;7.40;;
64395;SDS011;50717;53.360;6.290;2022-12-05T07:31:01;18.55;;;7.93;;
64395;SDS011;50717;53.360;6.290;2022-12-05T07:33:29;13.55;;;7.60;;
64395;SDS011;50717;53.360;6.290;2022-12-05T07:35:58;18.27;;;7.68;;
64395;SDS011;50717;53.360;6.290;2022-12-05T07:38:29;19.50;;;7.40;;
64395;SDS011;50717;53.360;6.290;2022-12-05T07:40:54;17.30;;;7.22;;
64395;SDS011;50717;53.360;6.290;2022-12-05T07:43:20;14.68;;;7.22;;
64395;SDS011;50717;53.360;6.290;2022-12-05T07:45:46;30.85;;;7.68;;
64395;SDS011;50717;53.360;6.290;2022-12-05T07:48:12;18.90;;;6.72;;
64395;SDS011;50717;53.360;6.290;2022-12-05T07:50:37;20.17;;;7.38;;
64395;SDS011;50717;53.360;6.290;2022-12-05T07:53:03;24.27;;;7.90;;
64395;SDS011;50717;53.360;6.290;2022-12-05T07:55:28;16.42;;;6.20;;
64395;SDS011;50717;53.360;6.290;2022-12-05T07:57:54;17.52;;;8.43;;
64395;SDS011;50717;53.360;6.290;2022-12-05T08:00:20;17.02;;;7.60;;
64395;SDS011;50717;53.360;6.290;2022-12-05T08:02:46;17.90;;;7.07;;
64395;SDS011;50717;53.360;6.290;2022-12-05T08:05:12;15.73;;;7.82;;
64395;SDS011;50717;53.360;6.290;2022-12-05T08:07:38;21.88;;;7.80;;
64395;SDS011;50717;53.360;6.290;2022-12-05T08:10:04;15.63;;;7.15;;
64395;SDS011;50717;53.360;6.290;2022-12-05T08:12:30;20.15;;;7.32;;
64395;SDS011;50717;53.360;6.290;2022-12-05T08:14:56;22.95;;;8.00;;
64395;SDS011;50717;53.360;6.290;2022-12-05T08:17:21;18.77;;;7.18;;
64395;SDS011;50717;53.360;6.290;2022-12-05T08:19:47;21.08;;;7.68;;
64395;SDS011;50717;53.360;6.290;2022-12-05T08:22:13;17.17;;;7.72;;
64395;SDS011;50717;53.360;6.290;2022-12-05T08:24:38;24.52;;;8.18;;
64395;SDS011;50717;53.360;6.290;2022-12-05T08:27:04;19.98;;;6.97;;
64395;SDS011;50717;53.360;6.290;2022-12-05T08:29:30;17.10;;;6.65;;
64395;SDS011;50717;53.360;6.290;2022-12-05T08:31:56;20.58;;;7.50;;
64395;SDS011;50717;53.360;6.290;2022-12-05T08:34:22;20.13;;;7.75;;
64395;SDS011;50717;53.360;6.290;2022-12-05T08:36:48;22.38;;;7.90;;
64395;SDS011;50717;53.360;6.290;2022-12-05T08:39:15;15.32;;;7.00;;
64395;SDS011;50717;53.360;6.290;2022-12-05T08:41:42;19.92;;;7.63;;
64395;SDS011;50717;53.360;6.290;2022-12-05T08:44:09;21.08;;;7.20;;
64395;SDS011;50717;53.360;6.290;2022-12-05T08:46:40;17.95;;;7.10;;
64395;SDS011;50717;53.360;6.290;2022-12-05T08:49:06;16.63;;;7.03;;
64395;SDS011;50717;53.360;6.290;2022-12-05T08:51:32;23.50;;;7.97;;
64395;SDS011;50717;53.360;6.290;2022-12-05T08:54:00;19.85;;;7.97;;
64395;SDS011;50717;53.360;6.290;2022-12-05T08:56:27;21.13;;;7.07;;
64395;SDS011;50717;53.360;6.290;2022-12-05T08:58:54;20.63;;;7.88;;
64395;SDS011;50717;53.360;6.290;2022-12-05T09:01:20;18.42;;;7.50;;
64395;SDS011;50717;53.360;6.290;2022-12-05T09:03:46;22.50;;;8.15;;
64395;SDS011;50717;53.360;6.290;2022-12-05T09:06:14;22.27;;;8.07;;
64395;SDS011;50717;53.360;6.290;2022-12-05T09:08:42;22.85;;;8.70;;
64395;SDS011;50717;53.360;6.290;2022-12-05T09:13:38;17.15;;;7.97;;
64395;SDS011;50717;53.360;6.290;2022-12-05T09:16:09;19.65;;;7.95;;
64395;SDS011;50717;53.360;6.290;2022-12-05T09:18:37;16.63;;;8.05;;
64395;SDS011;50717;53.360;6.290;2022-12-05T09:23:29;20.15;;;8.75;;
64395;SDS011;50717;53.360;6.290;2022-12-05T09:25:55;17.45;;;7.85;;
64395;SDS011;50717;53.360;6.290;2022-12-05T09:28:22;22.58;;;8.40;;
64395;SDS011;50717;53.360;6.290;2022-12-05T09:30:57;21.15;;;8.10;;
64395;SDS011;50717;53.360;6.290;2022-12-05T09:33:26;17.73;;;8.32;;
64395;SDS011;50717;53.360;6.290;2022-12-05T09:35:52;23.80;;;8.63;;
64395;SDS011;50717;53.360;6.290;2022-12-05T09:38:18;24.02;;;9.00;;
64395;SDS011;50717;53.360;6.290;2022-12-05T09:40:44;21.33;;;7.72;;
64395;SDS011;50717;53.360;6.290;2022-12-05T09:43:24;21.88;;;8.73;;
64395;SDS011;50717;53.360;6.290;2022-12-05T09:46:09;21.00;;;8.85;;
64395;SDS011;50717;53.360;6.290;2022-12-05T09:48:50;22.42;;;8.75;;
64395;SDS011;50717;53.360;6.290;2022-12-05T09:51:16;22.95;;;8.48;;
64395;SDS011;50717;53.360;6.290;2022-12-05T09:53:42;30.80;;;8.65;;
64395;SDS011;50717;53.360;6.290;2022-12-05T10:04:25;15.60;;;7.93;;
64395;SDS011;50717;53.360;6.290;2022-12-05T10:12:15;17.42;;;7.82;;
64395;SDS011;50717;53.360;6.290;2022-12-05T10:14:51;17.52;;;7.47;;
64395;SDS011;50717;53.360;6.290;2022-12-05T10:19:59;19.23;;;8.27;;
64395;SDS011;50717;53.360;6.290;2022-12-05T10:22:40;19.15;;;7.93;;
64395;SDS011;50717;53.360;6.290;2022-12-05T10:25:10;18.83;;;8.05;;
64395;SDS011;50717;53.360;6.290;2022-12-05T10:27:42;27.17;;;9.45;;
64395;SDS011;50717;53.360;6.290;2022-12-05T10:30:13;23.00;;;8.73;;
64395;SDS011;50717;53.360;6.290;2022-12-05T10:32:54;18.27;;;8.30;;
64395;SDS011;50717;53.360;6.290;2022-12-05T10:38:02;17.83;;;8.02;;
64395;SDS011;50717;53.360;6.290;2022-12-05T10:40:40;21.27;;;8.52;;
64395;SDS011;50717;53.360;6.290;2022-12-05T10:43:11;20.33;;;7.97;;
64395;SDS011;50717;53.360;6.290;2022-12-05T10:45:42;18.90;;;8.63;;
64395;SDS011;50717;53.360;6.290;2022-12-05T10:48:16;20.40;;;7.78;;
64395;SDS011;50717;53.360;6.290;2022-12-05T10:50:43;23.50;;;7.65;;
64395;SDS011;50717;53.360;6.290;2022-12-05T10:53:20;17.90;;;7.43;;
64395;SDS011;50717;53.360;6.290;2022-12-05T10:55:52;15.93;;;7.07;;
64395;SDS011;50717;53.360;6.290;2022-12-05T10:58:20;18.88;;;7.28;;
64395;SDS011;50717;53.360;6.290;2022-12-05T11:00:50;15.20;;;7.43;;
64395;SDS011;50717;53.360;6.290;2022-12-05T11:03:29;17.40;;;7.38;;
64395;SDS011;50717;53.360;6.290;2022-12-05T11:05:58;19.58;;;7.10;;
64395;SDS011;50717;53.360;6.290;2022-12-05T11:08:27;18.58;;;6.60;;
64395;SDS011;50717;53.360;6.290;2022-12-05T11:10:59;20.83;;;6.72;;
64395;SDS011;50717;53.360;6.290;2022-12-05T11:13:50;20.67;;;6.80;;
64395;SDS011;50717;53.360;6.290;2022-12-05T11:16:24;25.13;;;7.45;;
64395;SDS011;50717;53.360;6.290;2022-12-05T11:19:16;24.40;;;7.28;;
64395;SDS011;50717;53.360;6.290;2022-12-05T11:21:42;25.15;;;7.43;;
64395;SDS011;50717;53.360;6.290;2022-12-05T11:24:23;17.63;;;6.35;;
64395;SDS011;50717;53.360;6.290;2022-12-05T11:26:55;22.27;;;7.00;;
64395;SDS011;50717;53.360;6.290;2022-12-05T11:31:56;18.73;;;6.60;;
64395;SDS011;50717;53.360;6.290;2022-12-05T11:37:05;20.85;;;7.50;;
64395;SDS011;50717;53.360;6.290;2022-12-05T11:39:42;15.95;;;6.78;;
64395;SDS011;50717;53.360;6.290;2022-12-05T11:42:14;17.38;;;6.50;;
64395;SDS011;50717;53.360;6.290;2022-12-05T11:45:11;18.65;;;6.53;;
64395;SDS011;50717;53.360;6.290;2022-12-05T11:51:02;17.45;;;6.32;;
64395;SDS011;50717;53.360;6.290;2022-12-05T12:04:51;15.20;;;5.93;;
64395;SDS011;50717;53.360;6.290;2022-12-05T12:10:32;17.92;;;6.60;;
64395;SDS011;50717;53.360;6.290;2022-12-05T12:18:54;18.25;;;6.10;;
64395;SDS011;50717;53.360;6.290;2022-12-05T12:43:23;17.30;;;5.50;;
64395;SDS011;50717;53.360;6.290;2022-12-05T12:46:07;16.98;;;5.85;;
64395;SDS011;50717;53.360;6.290;2022-12-05T12:51:57;14.45;;;5.43;;
64395;SDS011;50717;53.360;6.290;2022-12-05T12:54:40;17.10;;;5.85;;
64395;SDS011;50717;53.360;6.290;2022-12-05T13:00:25;15.85;;;4.70;;
64395;SDS011;50717;53.360;6.290;2022-12-05T13:03:14;13.43;;;5.07;;
64395;SDS011;50717;53.360;6.290;2022-12-05T13:05:49;17.17;;;5.35;;
64395;SDS011;50717;53.360;6.290;2022-12-05T13:10:59;15.52;;;5.22;;
64395;SDS011;50717;53.360;6.290;2022-12-05T13:13:32;11.85;;;4.72;;
64395;SDS011;50717;53.360;6.290;2022-12-05T13:16:03;10.63;;;4.50;;
64395;SDS011;50717;53.360;6.290;2022-12-05T13:18:32;16.20;;;4.97;;
64395;SDS011;50717;53.360;6.290;2022-12-05T13:20:59;12.32;;;4.60;;
64395;SDS011;50717;53.360;6.290;2022-12-05T13:23:39;15.45;;;5.00;;
64395;SDS011;50717;53.360;6.290;2022-12-05T13:26:11;17.90;;;5.20;;
64395;SDS011;50717;53.360;6.290;2022-12-05T13:28:38;13.88;;;4.18;;
64395;SDS011;50717;53.360;6.290;2022-12-05T13:31:34;14.10;;;4.90;;
64395;SDS011;50717;53.360;6.290;2022-12-05T13:34:02;15.73;;;5.30;;
64395;SDS011;50717;53.360;6.290;2022-12-05T13:36:29;17.02;;;5.57;;
64395;SDS011;50717;53.360;6.290;2022-12-05T13:39:23;24.60;;;5.78;;
64395;SDS011;50717;53.360;6.290;2022-12-05T13:42:20;19.67;;;5.72;;
64395;SDS011;50717;53.360;6.290;2022-12-05T13:44:57;18.48;;;5.38;;
64395;SDS011;50717;53.360;6.290;2022-12-05T13:50:18;15.65;;;5.47;;
64395;SDS011;50717;53.360;6.290;2022-12-05T13:52:55;13.40;;;5.18;;
64395;SDS011;50717;53.360;6.290;2022-12-05T13:58:01;14.77;;;5.78;;
64395;SDS011;50717;53.360;6.290;2022-12-05T14:00:47;10.93;;;4.97;;
64395;SDS011;50717;53.360;6.290;2022-12-05T14:05:50;10.40;;;4.68;;
64395;SDS011;50717;53.360;6.290;2022-12-05T14:15:41;13.50;;;5.03;;
64395;SDS011;50717;53.360;6.290;2022-12-05T14:21:02;15.07;;;5.13;;
64395;SDS011;50717;53.360;6.290;2022-12-05T14:23:38;20.60;;;5.38;;
64395;SDS011;50717;53.360;6.290;2022-12-05T14:26:17;16.85;;;5.47;;
64395;SDS011;50717;53.360;6.290;2022-12-05T14:34:35;23.83;;;5.82;;
64395;SDS011;50717;53.360;6.290;2022-12-05T14:42:18;20.10;;;5.63;;
64395;SDS011;50717;53.360;6.290;2022-12-05T14:45:02;20.50;;;5.03;;
64395;SDS011;50717;53.360;6.290;2022-12-05T14:47:52;22.65;;;5.45;;
64395;SDS011;50717;53.360;6.290;2022-12-05T14:53:17;18.98;;;5.35;;
64395;SDS011;50717;53.360;6.290;2022-12-05T14:55:45;19.63;;;6.25;;
64395;SDS011;50717;53.360;6.290;2022-12-05T14:58:17;15.95;;;5.85;;
64395;SDS011;50717;53.360;6.290;2022-12-05T15:00:56;20.92;;;5.03;;
64395;SDS011;50717;53.360;6.290;2022-12-05T15:03:27;14.52;;;5.28;;
64395;SDS011;50717;53.360;6.290;2022-12-05T15:05:56;17.15;;;5.40;;
64395;SDS011;50717;53.360;6.290;2022-12-05T15:08:25;10.05;;;4.90;;
64395;SDS011;50717;53.360;6.290;2022-12-05T15:10:54;15.10;;;5.32;;
64395;SDS011;50717;53.360;6.290;2022-12-05T15:13:21;14.95;;;5.70;;
64395;SDS011;50717;53.360;6.290;2022-12-05T15:16:00;11.23;;;5.50;;
64395;SDS011;50717;53.360;6.290;2022-12-05T15:18:39;20.17;;;6.05;;
64395;SDS011;50717;53.360;6.290;2022-12-05T15:21:17;18.48;;;5.80;;
64395;SDS011;50717;53.360;6.290;2022-12-05T15:28:58;24.02;;;6.50;;
64395;SDS011;50717;53.360;6.290;2022-12-05T15:31:26;26.58;;;5.93;;
64395;SDS011;50717;53.360;6.290;2022-12-05T15:33:55;30.77;;;6.53;;
64395;SDS011;50717;53.360;6.290;2022-12-05T15:36:25;24.08;;;6.55;;
64395;SDS011;50717;53.360;6.290;2022-12-05T15:38:57;26.85;;;6.45;;
64395;SDS011;50717;53.360;6.290;2022-12-05T15:41:26;23.88;;;5.55;;
64395;SDS011;50717;53.360;6.290;2022-12-05T15:43:55;23.40;;;6.10;;
64395;SDS011;50717;53.360;6.290;2022-12-05T15:46:24;21.38;;;7.07;;
64395;SDS011;50717;53.360;6.290;2022-12-05T15:48:55;22.90;;;6.60;;
64395;SDS011;50717;53.360;6.290;2022-12-05T15:51:27;19.35;;;6.25;;
64395;SDS011;50717;53.360;6.290;2022-12-05T15:54:07;24.55;;;6.93;;
64395;SDS011;50717;53.360;6.290;2022-12-05T15:57:00;21.08;;;6.75;;
64395;SDS011;50717;53.360;6.290;2022-12-05T15:59:27;26.38;;;7.10;;
64395;SDS011;50717;53.360;6.290;2022-12-05T16:02:11;33.15;;;6.97;;
64395;SDS011;50717;53.360;6.290;2022-12-05T16:04:48;17.60;;;6.43;;
64395;SDS011;50717;53.360;6.290;2022-12-05T16:07:17;25.52;;;6.78;;
64395;SDS011;50717;53.360;6.290;2022-12-05T16:09:44;19.02;;;6.35;;
64395;SDS011;50717;53.360;6.290;2022-12-05T16:12:17;20.98;;;7.47;;
64395;SDS011;50717;53.360;6.290;2022-12-05T16:15:09;18.48;;;5.80;;
64395;SDS011;50717;53.360;6.290;2022-12-05T16:17:44;19.85;;;5.63;;
64395;SDS011;50717;53.360;6.290;2022-12-05T16:20:19;26.73;;;6.00;;
64395;SDS011;50717;53.360;6.290;2022-12-05T16:29:04;18.05;;;5.50;;
64395;SDS011;50717;53.360;6.290;2022-12-05T16:31:30;23.70;;;6.07;;
64395;SDS011;50717;53.360;6.290;2022-12-05T16:33:59;20.85;;;5.75;;
64395;SDS011;50717;53.360;6.290;2022-12-05T16:36:27;21.75;;;5.57;;
64395;SDS011;50717;53.360;6.290;2022-12-05T16:39:00;17.65;;;6.28;;
64395;SDS011;50717;53.360;6.290;2022-12-05T16:41:34;21.00;;;6.32;;
64395;SDS011;50717;53.360;6.290;2022-12-05T16:44:02;25.92;;;6.80;;
64395;SDS011;50717;53.360;6.290;2022-12-05T16:46:46;33.03;;;7.40;;
64395;SDS011;50717;53.360;6.290;2022-12-05T16:52:32;17.55;;;5.60;;
64395;SDS011;50717;53.360;6.290;2022-12-05T16:54:32;21.13;;;5.97;;
64395;SDS011;50717;53.360;6.290;2022-12-05T16:56:58;21.85;;;6.13;;
64395;SDS011;50717;53.360;6.290;2022-12-05T17:01:58;17.15;;;5.22;;
64395;SDS011;50717;53.360;6.290;2022-12-05T17:04:26;20.48;;;5.72;;
64395;SDS011;50717;53.360;6.290;2022-12-05T17:06:52;23.58;;;5.60;;
64395;SDS011;50717;53.360;6.290;2022-12-05T17:09:18;14.65;;;5.90;;
64395;SDS011;50717;53.360;6.290;2022-12-05T17:11:44;21.98;;;5.20;;
64395;SDS011;50717;53.360;6.290;2022-12-05T17:14:12;19.95;;;5.15;;
64395;SDS011;50717;53.360;6.290;2022-12-05T17:16:40;19.45;;;5.30;;
64395;SDS011;50717;53.360;6.290;2022-12-05T17:21:32;18.52;;;5.57;;
64395;SDS011;50717;53.360;6.290;2022-12-05T17:23:58;15.98;;;5.20;;
64395;SDS011;50717;53.360;6.290;2022-12-05T17:28:51;21.23;;;5.32;;
64395;SDS011;50717;53.360;6.290;2022-12-05T17:31:20;15.15;;;4.70;;
64395;SDS011;50717;53.360;6.290;2022-12-05T17:33:48;17.33;;;5.78;;
64395;SDS011;50717;53.360;6.290;2022-12-05T17:36:14;21.65;;;5.75;;
64395;SDS011;50717;53.360;6.290;2022-12-05T17:38:41;22.92;;;5.93;;
64395;SDS011;50717;53.360;6.290;2022-12-05T17:41:17;24.70;;;5.70;;
64395;SDS011;50717;53.360;6.290;2022-12-05T17:43:45;18.02;;;5.60;;
64395;SDS011;50717;53.360;6.290;2022-12-05T17:46:15;19.08;;;5.03;;
64395;SDS011;50717;53.360;6.290;2022-12-05T17:48:43;19.35;;;5.53;;
64395;SDS011;50717;53.360;6.290;2022-12-05T17:53:39;17.55;;;4.97;;
64395;SDS011;50717;53.360;6.290;2022-12-05T17:56:06;18.48;;;4.88;;
64395;SDS011;50717;53.360;6.290;2022-12-05T17:58:32;17.83;;;5.07;;